createdAt,value
2023-04-20T00:01:01.465Z,3.76
2023-04-20T00:03:28.585Z,3.72
2023-04-20T00:05:55.333Z,3.85
2023-04-20T00:08:21.829Z,3.72
2023-04-20T00:10:48.312Z,3.68
2023-04-20T00:13:14.970Z,3.61
2023-04-20T00:15:41.506Z,3.65
2023-04-20T00:18:08.182Z,3.76
2023-04-20T00:20:35.167Z,3.74
2023-04-20T00:23:01.915Z,3.75
2023-04-20T00:25:29.641Z,3.79
2023-04-20T00:27:56.860Z,3.82
2023-04-20T00:30:23.474Z,3.68
2023-04-20T00:32:50.019Z,3.77
2023-04-20T00:35:16.616Z,3.81
2023-04-20T00:37:44.278Z,3.86
2023-04-20T00:40:11.085Z,3.91
2023-04-20T00:42:37.704Z,3.96
2023-04-20T00:45:04.589Z,3.87
2023-04-20T00:47:31.108Z,3.94
2023-04-20T00:49:57.756Z,3.88
2023-04-20T00:52:24.640Z,3.78
2023-04-20T00:54:51.193Z,4.00
2023-04-20T00:57:23.787Z,3.99
2023-04-20T00:59:53.648Z,4.03
2023-04-20T01:02:22.719Z,3.93
2023-04-20T01:05:39.923Z,4.07
2023-04-20T01:08:06.950Z,4.09
2023-04-20T01:10:33.559Z,3.97
2023-04-20T01:13:00.057Z,4.03
2023-04-20T01:15:26.816Z,4.00
2023-04-20T01:17:53.685Z,4.02
2023-04-20T01:20:20.556Z,3.98
2023-04-20T01:22:48.908Z,4.00
2023-04-20T01:25:16.333Z,3.95
2023-04-20T01:27:43.207Z,3.99
2023-04-20T01:30:10.665Z,4.03
2023-04-20T01:32:38.023Z,4.02
2023-04-20T01:35:05.734Z,4.06
2023-04-20T01:37:32.485Z,4.03
2023-04-20T01:40:03.725Z,4.07
2023-04-20T01:42:30.426Z,4.07
2023-04-20T01:44:56.923Z,3.99
2023-04-20T01:47:23.527Z,3.97
2023-04-20T01:49:50.017Z,4.04
2023-04-20T01:52:17.922Z,4.01
2023-04-20T01:54:44.452Z,3.89
2023-04-20T01:57:10.919Z,4.01
2023-04-20T01:59:37.406Z,3.94
2023-04-20T02:02:03.959Z,3.88
2023-04-20T02:04:32.792Z,3.91
2023-04-20T02:07:00.194Z,4.03
2023-04-20T02:09:26.823Z,3.98
2023-04-20T02:11:53.876Z,4.06
2023-04-20T02:14:20.358Z,4.06
2023-04-20T02:16:47.224Z,4.02
2023-04-20T02:19:13.720Z,4.03
2023-04-20T02:21:40.278Z,4.08
2023-04-20T02:24:07.118Z,3.99
2023-04-20T02:26:33.801Z,4.03
2023-04-20T02:29:00.292Z,4.02
2023-04-20T02:31:26.920Z,3.96
2023-04-20T02:33:53.734Z,3.84
2023-04-20T02:36:20.415Z,3.92
2023-04-20T02:38:46.943Z,3.94
2023-04-20T02:41:13.410Z,3.83
2023-04-20T02:43:40.496Z,3.76
2023-04-20T02:46:08.145Z,3.82
2023-04-20T02:48:34.738Z,3.73
2023-04-20T02:51:01.274Z,3.91
2023-04-20T02:53:32.884Z,3.91
2023-04-20T02:56:11.671Z,3.89
2023-04-20T02:58:52.052Z,3.90
2023-04-20T03:01:44.504Z,3.83
2023-04-20T03:04:18.027Z,3.68
2023-04-20T03:06:54.742Z,3.60
2023-04-20T03:09:27.871Z,3.58
2023-04-20T03:12:03.327Z,3.64
2023-04-20T03:14:48.658Z,3.71
2023-04-20T03:17:17.435Z,3.68
2023-04-20T03:19:44.267Z,3.63
2023-04-20T03:22:10.901Z,3.67
2023-04-20T03:24:37.808Z,3.70
2023-04-20T03:27:14.561Z,3.76
2023-04-20T03:29:52.729Z,3.78
2023-04-20T03:32:19.792Z,3.59
2023-04-20T03:34:46.578Z,3.67
2023-04-20T03:37:13.499Z,3.55
2023-04-20T03:39:40.185Z,3.67
2023-04-20T03:42:06.847Z,3.74
2023-04-20T03:44:33.399Z,3.62
2023-04-20T03:47:00.020Z,3.64
2023-04-20T03:49:26.608Z,3.64
2023-04-20T03:51:53.070Z,3.75
2023-04-20T03:54:19.582Z,3.69
2023-04-20T03:56:46.229Z,3.69
2023-04-20T03:59:13.645Z,3.79
2023-04-20T04:01:44.089Z,3.84
2023-04-20T04:04:11.029Z,3.79
2023-04-20T04:06:38.199Z,3.72
2023-04-20T04:09:05.890Z,3.73
2023-04-20T04:11:32.501Z,3.71
2023-04-20T04:13:59.342Z,3.74
2023-04-20T04:16:27.238Z,3.83
2023-04-20T04:18:54.387Z,3.80
2023-04-20T04:21:21.086Z,3.74
2023-04-20T04:23:54.419Z,3.76
2023-04-20T04:26:33.632Z,3.72
2023-04-20T04:29:00.254Z,3.78
2023-04-20T04:31:27.550Z,3.74
2023-04-20T04:34:01.059Z,3.65
2023-04-20T04:36:33.509Z,3.68
2023-04-20T04:39:00.901Z,3.81
2023-04-20T04:41:28.609Z,3.64
2023-04-20T04:44:05.968Z,3.66
2023-04-20T04:46:33.702Z,3.59
2023-04-20T04:49:04.352Z,3.64
2023-04-20T04:51:31.693Z,3.68
2023-04-20T04:53:58.179Z,3.64
2023-04-20T04:56:25.286Z,3.60
2023-04-20T04:58:51.794Z,3.59
2023-04-20T05:01:18.327Z,3.60
2023-04-20T05:03:45.002Z,3.67
2023-04-20T05:06:11.634Z,3.66
2023-04-20T05:08:38.208Z,3.59
2023-04-20T05:11:04.760Z,3.63
2023-04-20T05:13:31.272Z,3.63
2023-04-20T05:15:57.789Z,3.61
2023-04-20T05:18:24.287Z,3.65
2023-04-20T05:20:50.761Z,3.64
2023-04-20T05:23:17.304Z,3.49
2023-04-20T05:25:43.920Z,3.65
2023-04-20T05:28:10.728Z,3.56
2023-04-20T05:30:37.232Z,3.56
2023-04-20T05:33:03.982Z,3.60
2023-04-20T05:35:31.131Z,3.64
2023-04-20T05:38:00.324Z,3.63
2023-04-20T05:40:26.966Z,3.67
2023-04-20T05:42:53.553Z,3.72
2023-04-20T05:45:20.039Z,3.65
2023-04-20T05:47:57.073Z,3.69
2023-04-20T05:50:24.923Z,3.73
2023-04-20T05:52:52.054Z,3.69
2023-04-20T05:55:22.079Z,3.74
2023-04-20T05:57:49.277Z,3.71
2023-04-20T06:00:17.125Z,3.74
2023-04-20T06:02:43.928Z,3.77
2023-04-20T06:05:11.244Z,3.75
2023-04-20T06:07:38.510Z,3.77
2023-04-20T06:10:06.318Z,3.84
2023-04-20T06:12:32.931Z,3.94
2023-04-20T06:15:00.536Z,4.01
2023-04-20T06:17:27.253Z,3.97
2023-04-20T06:19:53.896Z,3.98
2023-04-20T06:22:20.613Z,3.94
2023-04-20T06:24:47.120Z,3.97
2023-04-20T06:27:13.841Z,3.99
2023-04-20T06:29:40.462Z,3.84
2023-04-20T06:32:06.963Z,3.78
2023-04-20T06:34:33.474Z,3.82
2023-04-20T06:36:59.976Z,3.89
2023-04-20T06:39:26.735Z,3.85
2023-04-20T06:41:53.212Z,3.88
2023-04-20T06:44:21.456Z,3.87
2023-04-20T06:46:48.096Z,3.92
2023-04-20T06:49:14.686Z,3.94
2023-04-20T06:51:41.277Z,3.94
2023-04-20T06:54:07.892Z,3.94
2023-04-20T06:56:35.647Z,3.97
2023-04-20T06:59:02.706Z,3.99
2023-04-20T07:01:29.203Z,3.89
2023-04-20T07:03:55.847Z,3.89
2023-04-20T07:06:22.658Z,3.90
2023-04-20T07:08:49.172Z,3.97
2023-04-20T07:11:15.798Z,4.11
2023-04-20T07:13:42.299Z,4.02
2023-04-20T07:16:10.237Z,3.96
2023-04-20T07:18:36.849Z,3.99
2023-04-20T07:21:03.514Z,3.92
2023-04-20T07:23:30.063Z,3.96
2023-04-20T07:25:56.577Z,4.03
2023-04-20T07:28:23.116Z,3.94
2023-04-20T07:30:49.826Z,3.99
2023-04-20T07:33:16.440Z,3.92
2023-04-20T07:35:42.955Z,4.03
2023-04-20T07:38:09.466Z,3.92
2023-04-20T07:40:36.104Z,4.02
2023-04-20T07:43:02.593Z,4.04
2023-04-20T07:45:29.178Z,3.96
2023-04-20T07:47:57.356Z,3.95
2023-04-20T07:50:24.049Z,3.90
2023-04-20T07:52:50.763Z,3.88
2023-04-20T07:55:17.424Z,3.94
2023-04-20T07:57:45.424Z,3.99
2023-04-20T08:00:13.474Z,3.93
2023-04-20T08:02:40.039Z,3.92
2023-04-20T08:05:08.082Z,3.99
2023-04-20T08:07:34.652Z,3.99
2023-04-20T08:10:02.831Z,4.07
2023-04-20T08:12:29.357Z,4.04
2023-04-20T08:15:00.469Z,4.07
2023-04-20T08:17:27.713Z,4.05
2023-04-20T08:19:54.346Z,4.07
2023-04-20T08:22:20.873Z,4.05
2023-04-20T08:24:47.574Z,4.11
2023-04-20T08:27:14.067Z,4.05
2023-04-20T08:29:41.053Z,4.07
2023-04-20T08:32:12.398Z,4.18
2023-04-20T08:34:39.468Z,4.22
2023-04-20T08:37:06.111Z,4.22
2023-04-20T08:39:32.848Z,4.17
2023-04-20T08:41:59.442Z,4.11
2023-04-20T08:44:26.304Z,4.18
2023-04-20T08:46:52.852Z,4.18
2023-04-20T08:49:20.000Z,4.24
2023-04-20T08:51:47.728Z,4.20
2023-04-20T08:54:14.702Z,4.28
2023-04-20T08:56:47.013Z,4.27
2023-04-20T08:59:14.629Z,4.25
2023-04-20T09:01:42.447Z,4.35
2023-04-20T09:04:18.853Z,4.31
2023-04-20T09:06:47.330Z,4.40
2023-04-20T09:09:13.979Z,4.39
2023-04-20T09:11:40.731Z,4.43
2023-04-20T09:14:15.014Z,4.40
2023-04-20T09:16:52.793Z,4.47
2023-04-20T09:19:24.711Z,4.53
2023-04-20T09:21:52.869Z,4.62
2023-04-20T09:24:21.518Z,4.53
2023-04-20T09:26:48.405Z,4.63
2023-04-20T09:29:19.887Z,4.53
2023-04-20T09:31:47.096Z,4.51
2023-04-20T09:34:13.791Z,4.47
2023-04-20T09:36:47.321Z,4.35
2023-04-20T09:39:16.770Z,4.33
2023-04-20T09:41:43.709Z,4.33
2023-04-20T09:44:11.869Z,4.28
2023-04-20T09:46:40.666Z,4.27
2023-04-20T09:49:09.084Z,4.40
2023-04-20T09:51:38.383Z,4.44
2023-04-20T09:54:06.638Z,4.53
2023-04-20T09:56:35.087Z,4.56
2023-04-20T09:59:03.701Z,4.73
2023-04-20T10:01:33.584Z,4.63
2023-04-20T10:04:01.370Z,4.61
2023-04-20T10:06:33.277Z,4.75
2023-04-20T10:09:02.305Z,4.68
2023-04-20T10:11:41.119Z,4.75
2023-04-20T10:14:17.087Z,4.66
2023-04-20T10:16:45.439Z,4.80
2023-04-20T10:19:13.102Z,4.74
2023-04-20T10:21:48.696Z,4.71
2023-04-20T10:24:18.862Z,4.74
2023-04-20T10:26:47.259Z,4.81
2023-04-20T10:29:32.323Z,4.81
2023-04-20T10:31:59.662Z,4.86
2023-04-20T10:34:33.671Z,4.98
2023-04-20T10:37:11.285Z,4.94
2023-04-20T10:39:46.473Z,4.88
2023-04-20T10:42:16.022Z,4.90
2023-04-20T10:44:54.503Z,4.92
2023-04-20T10:47:32.457Z,4.89
2023-04-20T10:50:10.504Z,4.96
2023-04-20T10:52:40.205Z,4.92
2023-04-20T10:55:18.052Z,4.99
2023-04-20T10:57:47.860Z,4.96
2023-04-20T11:00:21.714Z,4.98
2023-04-20T11:02:50.234Z,5.01
2023-04-20T11:05:19.089Z,5.02
2023-04-20T11:07:53.591Z,5.15
2023-04-20T11:10:22.073Z,5.26
2023-04-20T11:12:49.217Z,5.27
2023-04-20T11:15:16.388Z,5.27
2023-04-20T11:17:43.213Z,5.14
2023-04-20T11:20:16.271Z,5.25
2023-04-20T11:22:43.745Z,5.38
2023-04-20T11:25:11.898Z,5.34
2023-04-20T11:27:39.551Z,5.41
2023-04-20T11:30:08.722Z,5.57
2023-04-20T11:32:36.103Z,5.68
2023-04-20T11:35:10.796Z,5.53
2023-04-20T11:37:54.450Z,5.69
2023-04-20T11:40:21.239Z,5.67
2023-04-20T11:42:47.816Z,5.80
2023-04-20T11:45:14.289Z,5.82
2023-04-20T11:47:41.585Z,5.84
2023-04-20T11:50:10.282Z,5.87
2023-04-20T11:52:37.021Z,5.73
2023-04-20T11:55:03.705Z,5.82
2023-04-20T11:57:30.303Z,5.83
2023-04-20T11:59:56.924Z,5.91
2023-04-20T12:02:23.628Z,6.01
2023-04-20T12:04:50.531Z,5.90
2023-04-20T12:07:17.156Z,6.01
2023-04-20T12:09:44.444Z,6.02
2023-04-20T12:12:11.002Z,5.98
2023-04-20T12:14:37.476Z,6.15
2023-04-20T12:17:05.046Z,6.15
2023-04-20T12:19:31.981Z,6.30
2023-04-20T12:21:58.657Z,6.31
2023-04-20T12:24:25.311Z,6.38
2023-04-20T12:26:51.827Z,6.23
2023-04-20T12:29:18.638Z,6.22
2023-04-20T12:31:45.345Z,6.30
2023-04-20T12:34:12.433Z,6.30
2023-04-20T12:36:38.934Z,6.29
2023-04-20T12:39:05.578Z,6.30
2023-04-20T12:41:33.078Z,6.41
2023-04-20T12:43:59.716Z,6.35
2023-04-20T12:46:26.258Z,6.38
2023-04-20T12:48:52.754Z,6.44
2023-04-20T12:51:19.274Z,6.40
2023-04-20T12:53:45.986Z,6.42
2023-04-20T12:56:12.452Z,6.38
2023-04-20T12:58:38.946Z,6.39
2023-04-20T13:01:05.725Z,6.39
2023-04-20T13:03:32.757Z,6.37
2023-04-20T13:06:00.565Z,6.38
2023-04-20T13:08:27.162Z,6.32
2023-04-20T13:10:53.702Z,6.25
2023-04-20T13:13:20.228Z,6.37
2023-04-20T13:15:46.782Z,6.35
2023-04-20T13:18:15.499Z,6.52
2023-04-20T13:20:42.073Z,6.43
2023-04-20T13:23:08.526Z,6.44
2023-04-20T13:25:35.123Z,6.39
2023-04-20T13:28:03.473Z,6.38
2023-04-20T13:30:30.050Z,6.41
2023-04-20T13:32:56.673Z,6.37
2023-04-20T13:35:24.127Z,6.41
2023-04-20T13:37:50.824Z,6.23
2023-04-20T13:40:17.439Z,6.25
2023-04-20T13:42:43.893Z,6.32
2023-04-20T13:45:10.782Z,6.37
2023-04-20T13:47:39.636Z,6.37
2023-04-20T13:50:07.675Z,6.26
2023-04-20T13:52:34.677Z,6.31
2023-04-20T13:55:01.165Z,6.31
2023-04-20T13:57:27.725Z,6.32
2023-04-20T13:59:54.282Z,6.43
2023-04-20T14:02:20.891Z,6.44
2023-04-20T14:04:47.578Z,6.38
2023-04-20T14:07:14.203Z,6.36
2023-04-20T14:09:40.694Z,6.32
2023-04-20T14:12:07.346Z,6.25
2023-04-20T14:14:33.842Z,6.30
2023-04-20T14:17:00.441Z,6.33
2023-04-20T14:19:26.928Z,6.33
2023-04-20T14:21:53.486Z,6.32
2023-04-20T14:24:20.224Z,6.33
2023-04-20T14:26:46.908Z,6.54
2023-04-20T14:29:13.700Z,6.46
2023-04-20T14:31:40.421Z,6.52
2023-04-20T14:34:07.130Z,6.58
2023-04-20T14:36:33.602Z,6.71
2023-04-20T14:39:00.095Z,6.71
2023-04-20T14:41:26.603Z,6.77
2023-04-20T14:43:53.087Z,6.78
2023-04-20T14:46:19.855Z,6.87
2023-04-20T14:48:46.522Z,6.81
2023-04-20T14:51:13.936Z,6.75
2023-04-20T14:53:40.439Z,6.75
2023-04-20T14:56:07.102Z,6.71
2023-04-20T14:58:33.791Z,6.74
2023-04-20T15:01:00.826Z,6.72
2023-04-20T15:03:27.532Z,6.81
2023-04-20T15:05:59.562Z,6.85
2023-04-20T15:08:26.098Z,6.95
2023-04-20T15:10:56.414Z,7.02
2023-04-20T15:13:23.871Z,6.98
2023-04-20T15:15:51.974Z,6.89
2023-04-20T15:18:20.033Z,6.95
2023-04-20T15:20:46.610Z,6.87
2023-04-20T15:23:13.141Z,7.10
2023-04-20T15:25:39.784Z,7.00
2023-04-20T15:28:06.801Z,7.03
2023-04-20T15:30:33.549Z,6.90
2023-04-20T15:33:04.449Z,7.03
2023-04-20T15:35:31.502Z,7.08
2023-04-20T15:37:58.085Z,6.97
2023-04-20T15:40:24.754Z,6.95
2023-04-20T15:42:51.520Z,7.03
2023-04-20T15:45:18.003Z,7.01
2023-04-20T15:47:44.643Z,7.00
2023-04-20T15:50:11.294Z,7.00
2023-04-20T15:52:37.834Z,7.08
2023-04-20T15:55:04.879Z,7.05
2023-04-20T15:57:31.412Z,7.05
2023-04-20T15:59:57.935Z,7.20
2023-04-20T16:02:24.744Z,7.10
2023-04-20T16:04:51.435Z,7.04
2023-04-20T16:07:18.023Z,7.02
2023-04-20T16:09:44.452Z,7.01
2023-04-20T16:12:10.991Z,6.99
2023-04-20T16:14:37.422Z,6.96
2023-04-20T16:17:03.890Z,6.98
2023-04-20T16:19:31.515Z,7.08
2023-04-20T16:21:58.180Z,7.02
2023-04-20T16:24:24.671Z,6.95
2023-04-20T16:26:51.262Z,6.95
2023-04-20T16:29:17.720Z,7.02
2023-04-20T16:31:44.303Z,7.05
2023-04-20T16:34:10.739Z,7.05
2023-04-20T16:36:37.204Z,7.09
2023-04-20T16:39:06.062Z,7.04
2023-04-20T16:41:32.497Z,6.88
2023-04-20T16:43:58.951Z,6.99
2023-04-20T16:46:25.834Z,6.98
2023-04-20T16:48:54.454Z,7.01
2023-04-20T16:51:20.937Z,7.02
2023-04-20T16:53:47.373Z,7.04
2023-04-20T16:56:14.453Z,7.26
2023-04-20T16:58:40.877Z,7.22
2023-04-20T17:01:07.830Z,7.20
2023-04-20T17:03:34.531Z,7.15
2023-04-20T17:06:07.257Z,7.15
2023-04-20T17:08:34.473Z,7.05
2023-04-20T17:11:01.810Z,7.10
2023-04-20T17:13:28.344Z,7.03
2023-04-20T17:15:54.848Z,6.97
2023-04-20T17:18:21.624Z,6.97
2023-04-20T17:20:48.592Z,7.03
2023-04-20T17:23:19.466Z,7.07
2023-04-20T17:25:47.331Z,7.05
2023-04-20T17:28:14.144Z,7.01
2023-04-20T17:30:41.615Z,7.03
2023-04-20T17:33:13.928Z,6.95
2023-04-20T17:35:40.701Z,7.02
2023-04-20T17:38:07.436Z,6.94
2023-04-20T17:40:34.283Z,6.93
2023-04-20T17:43:01.712Z,6.91
2023-04-20T17:45:28.154Z,6.86
2023-04-20T17:47:54.620Z,6.79
2023-04-20T17:50:22.535Z,6.72
2023-04-20T17:52:49.070Z,7.01
2023-04-20T17:55:15.565Z,6.90
2023-04-20T17:57:42.133Z,6.96
2023-04-20T18:00:11.525Z,6.99
2023-04-20T18:02:40.955Z,6.93
2023-04-20T18:05:07.856Z,6.90
2023-04-20T18:07:34.680Z,6.84
2023-04-20T18:10:01.424Z,6.92
2023-04-20T18:12:27.932Z,6.88
2023-04-20T18:14:54.374Z,6.83
2023-04-20T18:17:20.914Z,6.67
2023-04-20T18:19:47.497Z,6.85
2023-04-20T18:22:14.400Z,6.86
2023-04-20T18:24:40.884Z,6.82
2023-04-20T18:27:07.365Z,6.72
2023-04-20T18:29:33.786Z,6.52
2023-04-20T18:32:01.180Z,6.72
2023-04-20T18:34:30.986Z,6.68
2023-04-20T18:36:58.470Z,6.73
2023-04-20T18:39:25.695Z,6.61
2023-04-20T18:41:52.211Z,6.68
2023-04-20T18:44:18.969Z,6.61
2023-04-20T18:46:46.347Z,6.61
2023-04-20T18:49:12.858Z,6.73
2023-04-20T18:51:39.320Z,6.78
2023-04-20T18:54:06.298Z,6.70
2023-04-20T18:56:32.779Z,6.60
2023-04-20T18:59:00.297Z,6.64
2023-04-20T19:01:27.203Z,6.52
2023-04-20T19:03:54.035Z,6.67
2023-04-20T19:06:20.581Z,6.65
2023-04-20T19:08:47.206Z,6.72
2023-04-20T19:11:13.673Z,6.68
2023-04-20T19:13:44.323Z,6.46
2023-04-20T19:16:11.943Z,6.54
2023-04-20T19:18:39.224Z,6.54
2023-04-20T19:21:05.937Z,6.60
2023-04-20T19:23:32.496Z,6.60
2023-04-20T19:25:59.011Z,6.53
2023-04-20T19:28:25.585Z,6.48
2023-04-20T19:30:52.125Z,6.64
2023-04-20T19:33:18.892Z,6.66
2023-04-20T19:35:50.511Z,6.62
2023-04-20T19:38:21.342Z,6.44
2023-04-20T19:40:48.884Z,6.46
2023-04-20T19:43:16.978Z,6.44
2023-04-20T19:45:43.714Z,6.60
2023-04-20T19:48:10.333Z,6.33
2023-04-20T19:50:36.879Z,6.34
2023-04-20T19:53:03.570Z,6.40
2023-04-20T19:55:30.207Z,6.41
2023-04-20T19:57:56.678Z,6.32
2023-04-20T20:00:23.128Z,6.31
2023-04-20T20:02:49.714Z,6.33
2023-04-20T20:05:16.281Z,6.32
2023-04-20T20:07:42.914Z,6.20
2023-04-20T20:10:09.674Z,6.28
2023-04-20T20:12:36.256Z,6.24
2023-04-20T20:15:04.020Z,6.15
2023-04-20T20:17:30.574Z,6.15
2023-04-20T20:19:57.048Z,6.20
2023-04-20T20:22:23.586Z,6.15
2023-04-20T20:24:54.120Z,6.17
2023-04-20T20:27:21.296Z,6.16
2023-04-20T20:29:47.778Z,6.33
2023-04-20T20:32:14.332Z,6.20
2023-04-20T20:34:41.292Z,5.93
2023-04-20T20:37:10.162Z,6.14
2023-04-20T20:39:36.908Z,6.18
2023-04-20T20:42:04.105Z,6.12
2023-04-20T20:44:33.065Z,6.20
2023-04-20T20:47:02.712Z,6.16
2023-04-20T20:49:29.179Z,6.26
2023-04-20T20:51:55.728Z,6.27
2023-04-20T20:54:22.247Z,6.20
2023-04-20T20:56:48.736Z,5.96
2023-04-20T20:59:15.439Z,6.01
2023-04-20T21:01:41.908Z,6.10
2023-04-20T21:04:08.735Z,6.15
2023-04-20T21:06:35.518Z,6.20
2023-04-20T21:09:02.098Z,6.24
2023-04-20T21:11:28.619Z,6.25
2023-04-20T21:14:01.306Z,6.25
2023-04-20T21:16:28.534Z,6.36
2023-04-20T21:18:55.239Z,6.25
2023-04-20T21:21:21.643Z,6.19
2023-04-20T21:23:49.092Z,6.22
2023-04-20T21:26:16.271Z,6.16
2023-04-20T21:28:42.895Z,6.02
2023-04-20T21:31:09.372Z,6.08
2023-04-20T21:33:36.105Z,6.06
2023-04-20T21:36:02.602Z,6.11
2023-04-20T21:38:29.048Z,6.05
2023-04-20T21:40:55.542Z,6.05
2023-04-20T21:43:21.984Z,6.04
2023-04-20T21:45:48.437Z,6.08
2023-04-20T21:48:14.927Z,5.98
2023-04-20T21:50:41.405Z,5.86
2023-04-20T21:53:07.838Z,6.01
2023-04-20T21:55:34.804Z,6.07
2023-04-20T21:58:01.562Z,6.14
2023-04-20T22:00:27.954Z,5.98
2023-04-20T22:02:54.448Z,5.99
2023-04-20T22:05:21.767Z,5.99
2023-04-20T22:07:48.196Z,6.00
2023-04-20T22:10:15.066Z,5.94
2023-04-20T22:12:42.232Z,6.12
2023-04-20T22:15:13.958Z,6.17
2023-04-20T22:17:41.014Z,5.94
2023-04-20T22:20:10.055Z,6.10
2023-04-20T22:22:37.310Z,6.12
2023-04-20T22:25:05.113Z,6.00
2023-04-20T22:27:33.349Z,5.98
2023-04-20T22:29:59.952Z,5.97
2023-04-20T22:32:27.031Z,6.00
2023-04-20T22:34:53.499Z,6.14
2023-04-20T22:37:19.929Z,5.98
2023-04-20T22:39:46.338Z,6.05
2023-04-20T22:42:12.743Z,6.03
2023-04-20T22:44:39.188Z,5.91
2023-04-20T22:47:05.732Z,5.92
2023-04-20T22:49:32.222Z,5.99
2023-04-20T22:51:58.648Z,5.92
2023-04-20T22:54:25.458Z,6.08
2023-04-20T22:56:52.034Z,6.06
2023-04-20T22:59:18.732Z,5.95
2023-04-20T23:01:45.681Z,5.90
2023-04-20T23:04:12.317Z,5.90
2023-04-20T23:06:38.818Z,5.95
2023-04-20T23:09:08.411Z,5.97
2023-04-20T23:11:38.658Z,6.01
2023-04-20T23:14:09.008Z,5.92
2023-04-20T23:16:35.605Z,6.01
2023-04-20T23:19:02.099Z,6.01
2023-04-20T23:21:28.893Z,6.02
2023-04-20T23:23:58.761Z,5.95
2023-04-20T23:26:25.326Z,5.98
2023-04-20T23:28:52.769Z,5.99
2023-04-20T23:31:19.827Z,5.94
2023-04-20T23:33:47.330Z,6.05
2023-04-20T23:36:13.824Z,5.97
2023-04-20T23:38:40.650Z,5.97
2023-04-20T23:41:15.156Z,6.12
2023-04-20T23:43:42.422Z,6.02
2023-04-20T23:46:09.051Z,5.96
2023-04-20T23:48:35.557Z,5.98
2023-04-20T23:51:02.294Z,5.96
2023-04-20T23:53:28.761Z,5.85
2023-04-20T23:55:55.754Z,6.11
2023-04-20T23:58:26.960Z,6.20
